createdAt,value
2019-04-29T00:00:54.957Z,6.60
2019-04-29T00:03:26.248Z,6.60
2019-04-29T00:05:57.609Z,6.50
2019-04-29T00:08:28.927Z,6.90
2019-04-29T00:11:00.176Z,8.20
2019-04-29T00:13:31.574Z,5.97
2019-04-29T00:16:21.349Z,7.00
2019-04-29T00:19:11.875Z,6.00
2019-04-29T00:21:43.179Z,6.53
2019-04-29T00:24:14.467Z,6.93
2019-04-29T00:26:45.768Z,5.30
2019-04-29T00:29:17.081Z,6.60
2019-04-29T00:31:48.472Z,5.50
2019-04-29T00:34:19.794Z,4.87
2019-04-29T00:37:16.178Z,5.30
2019-04-29T00:40:15.235Z,5.90
2019-04-29T00:42:52.750Z,5.03
2019-04-29T00:45:24.584Z,5.10
2019-04-29T00:47:55.900Z,5.43
2019-04-29T00:50:27.173Z,5.60
2019-04-29T00:52:58.526Z,5.40
2019-04-29T00:55:31.406Z,5.50
2019-04-29T00:58:02.737Z,5.80
2019-04-29T01:00:38.304Z,6.20
2019-04-29T01:03:09.777Z,6.43
2019-04-29T01:05:41.206Z,5.50
2019-04-29T01:08:12.510Z,7.40
2019-04-29T01:10:43.865Z,5.47
2019-04-29T01:13:15.165Z,6.30
2019-04-29T01:15:46.499Z,6.63
2019-04-29T01:18:18.019Z,6.37
2019-04-29T01:20:49.263Z,7.57
2019-04-29T01:23:20.579Z,19.20
2019-04-29T01:25:55.631Z,13.67
2019-04-29T01:28:35.924Z,7.87
2019-04-29T01:31:12.578Z,7.17
2019-04-29T01:33:43.846Z,6.20
2019-04-29T01:36:43.201Z,7.30
2019-04-29T01:39:16.088Z,7.00
2019-04-29T01:42:11.021Z,6.90
2019-04-29T01:44:42.301Z,6.80
2019-04-29T01:47:13.571Z,7.30
2019-04-29T01:49:44.854Z,7.97
2019-04-29T01:52:16.181Z,8.37
2019-04-29T01:54:47.521Z,9.30
2019-04-29T01:57:18.816Z,8.93
2019-04-29T01:59:50.134Z,8.70
2019-04-29T02:02:21.428Z,7.20
2019-04-29T02:04:52.765Z,7.93
2019-04-29T02:07:24.023Z,9.70
2019-04-29T02:10:03.897Z,9.77
2019-04-29T02:12:35.170Z,8.73
2019-04-29T02:15:07.371Z,8.60
2019-04-29T02:17:38.686Z,12.13
2019-04-29T02:20:10.191Z,12.87
2019-04-29T02:23:03.444Z,8.70
2019-04-29T02:25:38.364Z,8.10
2019-04-29T02:28:09.667Z,8.13
2019-04-29T02:30:47.776Z,6.57
2019-04-29T02:33:19.098Z,7.03
2019-04-29T02:35:50.403Z,7.27
2019-04-29T02:38:46.019Z,8.97
2019-04-29T02:41:24.408Z,7.47
2019-04-29T02:43:57.370Z,7.40
2019-04-29T02:46:28.675Z,8.40
2019-04-29T02:48:59.968Z,8.13
2019-04-29T02:51:49.475Z,7.20
2019-04-29T02:54:20.788Z,7.17
2019-04-29T02:56:59.782Z,7.00
2019-04-29T02:59:35.951Z,7.40
2019-04-29T03:02:22.644Z,6.80
2019-04-29T03:05:27.782Z,7.63
2019-04-29T03:07:59.141Z,8.20
2019-04-29T03:10:30.489Z,8.53
2019-04-29T03:13:01.792Z,7.87
2019-04-29T03:15:35.027Z,7.40
2019-04-29T03:18:06.442Z,8.70
2019-04-29T03:20:52.209Z,9.93
2019-04-29T03:23:24.161Z,8.10
2019-04-29T03:25:55.413Z,8.67
2019-04-29T03:28:26.798Z,8.30
2019-04-29T03:30:58.077Z,8.83
2019-04-29T03:33:29.403Z,10.40
2019-04-29T03:36:00.801Z,8.43
2019-04-29T03:38:32.093Z,8.27
2019-04-29T03:41:03.404Z,9.03
2019-04-29T03:43:34.661Z,11.03
2019-04-29T03:46:05.984Z,10.27
2019-04-29T03:48:37.254Z,11.13
2019-04-29T03:51:08.578Z,10.87
2019-04-29T03:53:42.802Z,9.43
2019-04-29T03:56:14.083Z,10.73
2019-04-29T03:58:45.372Z,10.33
2019-04-29T04:01:24.165Z,9.80
2019-04-29T04:03:59.827Z,12.87
2019-04-29T04:06:51.182Z,10.93
2019-04-29T04:09:24.923Z,11.33
2019-04-29T04:11:56.250Z,12.77
2019-04-29T04:14:27.549Z,14.00
2019-04-29T04:17:15.050Z,15.23
2019-04-29T04:19:47.075Z,12.80
2019-04-29T04:22:18.361Z,10.47
2019-04-29T04:24:52.205Z,10.93
2019-04-29T04:27:23.520Z,9.60
2019-04-29T04:29:54.885Z,9.83
2019-04-29T04:32:26.201Z,9.60
2019-04-29T04:34:57.514Z,9.37
2019-04-29T04:37:28.836Z,10.60
2019-04-29T04:40:00.100Z,9.50
2019-04-29T04:42:31.395Z,8.00
2019-04-29T04:45:02.705Z,9.13
2019-04-29T04:47:33.981Z,8.20
2019-04-29T04:50:05.390Z,10.20
2019-04-29T04:52:36.745Z,11.03
2019-04-29T04:55:08.388Z,11.07
2019-04-29T04:57:39.657Z,9.30
2019-04-29T05:00:20.234Z,8.93
2019-04-29T05:02:51.790Z,8.77
2019-04-29T05:05:23.132Z,9.07
2019-04-29T05:07:54.431Z,9.03
2019-04-29T05:10:25.746Z,9.13
2019-04-29T05:12:56.993Z,8.93
2019-04-29T05:15:28.229Z,8.73
2019-04-29T05:17:59.542Z,8.80
2019-04-29T05:20:30.854Z,9.30
2019-04-29T05:23:02.184Z,8.77
2019-04-29T05:25:34.702Z,10.07
2019-04-29T05:28:06.547Z,9.57
2019-04-29T05:30:37.853Z,10.60
2019-04-29T05:33:09.125Z,10.57
2019-04-29T05:35:50.158Z,9.23
2019-04-29T05:38:25.647Z,9.90
2019-04-29T05:40:57.291Z,10.50
2019-04-29T05:43:38.673Z,9.67
2019-04-29T05:46:21.605Z,9.90
2019-04-29T05:48:52.720Z,9.10
2019-04-29T05:51:49.148Z,10.13
2019-04-29T05:54:20.471Z,12.43
2019-04-29T05:56:51.781Z,12.73
2019-04-29T05:59:23.099Z,13.67
2019-04-29T06:01:54.382Z,11.13
2019-04-29T06:04:28.468Z,13.80
2019-04-29T06:06:58.685Z,10.47
2019-04-29T06:09:30.035Z,10.37
2019-04-29T06:12:01.317Z,12.07
2019-04-29T06:14:32.633Z,10.90
2019-04-29T06:17:07.701Z,11.17
2019-04-29T06:19:39.452Z,11.93
2019-04-29T06:22:09.873Z,11.70
2019-04-29T06:24:42.201Z,14.37
2019-04-29T06:27:13.458Z,13.37
2019-04-29T06:29:44.708Z,12.13
2019-04-29T06:32:20.171Z,11.93
2019-04-29T06:34:50.865Z,14.17
2019-04-29T06:37:22.165Z,13.37
2019-04-29T06:39:53.400Z,14.33
2019-04-29T06:42:24.631Z,13.90
2019-04-29T06:44:55.997Z,15.00
2019-04-29T06:47:27.289Z,14.50
2019-04-29T06:49:58.625Z,13.30
2019-04-29T06:52:29.925Z,13.87
2019-04-29T06:55:01.253Z,14.83
2019-04-29T06:57:32.582Z,15.70
2019-04-29T07:00:04.008Z,16.10
2019-04-29T07:02:35.314Z,19.83
2019-04-29T07:05:07.756Z,24.77
2019-04-29T07:07:39.078Z,21.93
2019-04-29T07:10:10.953Z,20.13
2019-04-29T07:12:42.749Z,21.70
2019-04-29T07:15:15.367Z,23.47
2019-04-29T07:17:46.681Z,23.63
2019-04-29T07:20:17.937Z,20.27
2019-04-29T07:22:49.300Z,23.13
2019-04-29T07:25:20.625Z,21.13
2019-04-29T07:27:51.932Z,25.63
2019-04-29T07:30:23.419Z,21.93
2019-04-29T07:32:54.718Z,23.33
2019-04-29T07:35:26.040Z,20.03
2019-04-29T07:37:57.389Z,21.20
2019-04-29T07:40:28.803Z,18.80
2019-04-29T07:43:02.793Z,19.90
2019-04-29T07:45:52.061Z,19.07
2019-04-29T07:48:23.362Z,17.83
2019-04-29T07:50:54.682Z,16.33
2019-04-29T07:53:35.035Z,15.27
2019-04-29T07:56:01.757Z,19.43
2019-04-29T07:58:32.021Z,14.13
2019-04-29T08:01:03.337Z,16.60
2019-04-29T08:03:34.644Z,16.80
2019-04-29T08:06:05.984Z,18.10
2019-04-29T08:08:37.868Z,17.63
2019-04-29T08:11:09.165Z,17.17
2019-04-29T08:13:45.476Z,16.60
2019-04-29T08:16:18.476Z,14.53
2019-04-29T08:18:53.602Z,14.50
2019-04-29T08:21:22.998Z,14.20
2019-04-29T08:23:54.315Z,13.13
2019-04-29T08:26:25.637Z,14.77
2019-04-29T08:29:00.245Z,15.40
2019-04-29T08:31:29.941Z,17.70
2019-04-29T08:34:01.327Z,12.43
2019-04-29T08:36:32.645Z,10.70
2019-04-29T08:39:08.612Z,11.70
2019-04-29T08:41:37.598Z,12.70
2019-04-29T08:44:25.927Z,11.43
2019-04-29T08:47:13.443Z,15.00
2019-04-29T08:49:44.835Z,14.07
2019-04-29T08:52:16.116Z,11.20
2019-04-29T08:54:50.637Z,10.87
2019-04-29T08:57:20.437Z,10.80
2019-04-29T08:59:51.741Z,12.63
2019-04-29T09:02:34.675Z,11.60
2019-04-29T09:04:56.015Z,13.90
2019-04-29T09:07:27.355Z,12.77
2019-04-29T09:10:01.750Z,12.23
2019-04-29T09:12:31.760Z,10.43
2019-04-29T09:15:03.147Z,9.43
2019-04-29T09:17:34.441Z,11.37
2019-04-29T09:20:07.169Z,11.73
2019-04-29T09:22:41.099Z,10.97
2019-04-29T09:25:31.387Z,10.57
2019-04-29T09:28:07.297Z,11.53
2019-04-29T09:30:39.012Z,10.00
2019-04-29T09:33:13.161Z,10.90
2019-04-29T09:35:43.316Z,10.20
2019-04-29T09:38:14.614Z,8.93
2019-04-29T09:40:54.466Z,8.83
2019-04-29T09:43:47.561Z,10.17
2019-04-29T09:46:30.084Z,9.73
2019-04-29T09:48:58.775Z,9.80
2019-04-29T09:51:30.067Z,10.33
2019-04-29T09:54:01.349Z,9.97
2019-04-29T09:56:34.702Z,11.30
2019-04-29T09:59:23.021Z,10.47
2019-04-29T10:02:26.569Z,11.77
2019-04-29T10:05:13.309Z,10.37
2019-04-29T10:07:44.590Z,11.03
2019-04-29T10:10:15.885Z,11.07
2019-04-29T10:12:47.199Z,12.03
2019-04-29T10:15:20.569Z,12.27
2019-04-29T10:18:16.561Z,13.33
2019-04-29T10:20:50.806Z,12.90
2019-04-29T10:23:22.111Z,12.10
2019-04-29T10:25:53.452Z,10.50
2019-04-29T10:28:24.753Z,9.47
2019-04-29T10:30:56.103Z,9.37
2019-04-29T10:33:27.824Z,11.13
2019-04-29T10:35:59.213Z,11.00
2019-04-29T10:38:30.540Z,11.20
2019-04-29T10:41:14.461Z,10.03
2019-04-29T10:44:09.246Z,8.53
2019-04-29T10:46:56.887Z,8.40
2019-04-29T10:49:34.781Z,7.63
2019-04-29T10:52:05.183Z,9.27
2019-04-29T10:54:36.512Z,7.40
2019-04-29T10:57:10.540Z,15.30
2019-04-29T10:59:45.015Z,7.97
2019-04-29T11:02:49.374Z,7.57
2019-04-29T11:05:37.303Z,8.73
2019-04-29T11:08:26.220Z,6.60
2019-04-29T11:11:02.401Z,6.73
2019-04-29T11:13:31.979Z,6.57
2019-04-29T11:16:03.329Z,7.40
2019-04-29T11:18:34.601Z,7.20
2019-04-29T11:21:08.853Z,6.57
2019-04-29T11:23:50.690Z,6.33
2019-04-29T11:26:37.396Z,7.77
2019-04-29T11:29:09.482Z,6.63
2019-04-29T11:31:41.026Z,6.30
2019-04-29T11:34:19.852Z,7.70
2019-04-29T11:36:51.114Z,8.00
2019-04-29T11:39:22.516Z,6.50
2019-04-29T11:41:54.608Z,6.10
2019-04-29T11:44:27.961Z,6.80
2019-04-29T11:46:59.474Z,7.17
2019-04-29T11:49:42.259Z,6.20
2019-04-29T11:52:13.543Z,6.40
2019-04-29T11:54:44.822Z,5.93
2019-04-29T11:57:40.122Z,5.87
2019-04-29T12:00:33.383Z,6.67
2019-04-29T12:03:08.203Z,6.27
2019-04-29T12:05:45.029Z,5.80
2019-04-29T12:08:17.044Z,5.00
2019-04-29T12:11:05.688Z,5.23
2019-04-29T12:13:31.489Z,5.80
2019-04-29T12:16:10.975Z,5.90
2019-04-29T12:18:51.309Z,6.03
2019-04-29T12:21:30.586Z,5.87
2019-04-29T12:24:04.430Z,5.90
2019-04-29T12:26:42.974Z,6.07
2019-04-29T12:29:08.725Z,5.13
2019-04-29T12:32:05.660Z,5.37
2019-04-29T12:35:04.687Z,5.93
2019-04-29T12:38:00.666Z,5.63
2019-04-29T12:40:50.212Z,5.90
2019-04-29T12:43:36.382Z,6.10
2019-04-29T12:46:17.676Z,6.07
2019-04-29T12:48:49.010Z,6.20
2019-04-29T12:51:20.309Z,6.27
2019-04-29T12:53:51.605Z,6.50
2019-04-29T12:56:33.107Z,6.20
2019-04-29T12:59:04.767Z,5.60
2019-04-29T13:02:09.805Z,5.90
2019-04-29T13:04:58.641Z,5.77
2019-04-29T13:07:43.121Z,5.70
2019-04-29T13:10:22.752Z,5.90
2019-04-29T13:12:54.050Z,4.90
2019-04-29T13:15:43.825Z,5.20
2019-04-29T13:18:23.848Z,5.77
2019-04-29T13:21:09.153Z,7.23
2019-04-29T13:23:36.011Z,5.30
2019-04-29T13:26:01.149Z,5.07
2019-04-29T13:28:34.603Z,5.40
2019-04-29T13:31:05.488Z,5.33
2019-04-29T13:33:36.776Z,5.37
2019-04-29T13:36:08.354Z,4.23
2019-04-29T13:38:39.679Z,4.17
2019-04-29T13:41:14.095Z,4.30
2019-04-29T13:43:43.956Z,3.97
2019-04-29T13:46:31.175Z,3.70
2019-04-29T13:49:13.555Z,4.07
2019-04-29T13:51:42.419Z,3.30
2019-04-29T13:54:13.734Z,4.03
2019-04-29T13:56:55.312Z,3.07
2019-04-29T13:59:23.533Z,2.57
2019-04-29T14:02:12.599Z,3.00
2019-04-29T14:04:48.193Z,2.40
2019-04-29T14:07:19.940Z,2.30
2019-04-29T14:09:51.223Z,2.57
2019-04-29T14:14:58.439Z,2.43
2019-04-29T14:17:31.775Z,2.40
2019-04-29T14:18:53.507Z,4.00
2019-04-29T14:20:01.533Z,2.27
2019-04-29T14:22:32.800Z,3.17
2019-04-29T14:25:04.515Z,2.57
2019-04-29T14:27:35.834Z,4.47
2019-04-29T14:30:13.707Z,2.70
2019-04-29T14:32:46.937Z,2.70
2019-04-29T14:35:47.636Z,2.97
2019-04-29T14:38:16.588Z,2.37
2019-04-29T14:40:47.913Z,2.93
2019-04-29T14:43:36.547Z,5.73
2019-04-29T14:46:16.784Z,4.87
2019-04-29T14:48:52.619Z,3.03
2019-04-29T14:51:27.933Z,2.20
2019-04-29T14:54:00.972Z,3.60
2019-04-29T14:56:29.967Z,2.50
2019-04-29T14:59:06.856Z,2.57
2019-04-29T15:01:41.985Z,2.53
2019-04-29T15:04:19.069Z,3.30
2019-04-29T15:06:48.285Z,2.30
2019-04-29T15:09:20.064Z,3.03
2019-04-29T15:11:59.641Z,2.50
2019-04-29T15:14:48.603Z,2.73
2019-04-29T15:17:44.814Z,3.00
2019-04-29T15:20:29.878Z,2.33
2019-04-29T15:22:58.013Z,3.70
2019-04-29T15:25:29.295Z,1.97
2019-04-29T15:28:00.605Z,2.00
2019-04-29T15:30:36.612Z,2.83
2019-04-29T15:33:04.908Z,2.17
2019-04-29T15:35:36.229Z,3.67
2019-04-29T15:38:07.570Z,3.20
2019-04-29T15:40:42.941Z,2.50
2019-04-29T15:43:11.899Z,2.10
2019-04-29T15:45:43.211Z,1.97
2019-04-29T15:48:14.512Z,2.50
2019-04-29T15:50:45.820Z,2.17
2019-04-29T15:53:17.142Z,2.57
2019-04-29T15:55:48.476Z,2.30
2019-04-29T15:58:22.704Z,3.67
2019-04-29T16:00:52.890Z,3.47
2019-04-29T16:03:24.265Z,2.40
2019-04-29T16:06:20.778Z,2.37
2019-04-29T16:08:59.352Z,3.30
2019-04-29T16:11:55.457Z,3.17
2019-04-29T16:14:26.758Z,3.07
2019-04-29T16:16:58.051Z,3.27
2019-04-29T16:19:29.384Z,7.30
2019-04-29T16:22:00.690Z,4.70
2019-04-29T16:24:37.448Z,4.43
2019-04-29T16:27:09.128Z,4.23
2019-04-29T16:29:39.019Z,3.67
2019-04-29T16:32:12.407Z,6.63
2019-04-29T16:34:44.608Z,4.37
2019-04-29T16:37:19.382Z,7.70
2019-04-29T16:39:52.907Z,4.87
2019-04-29T16:42:28.619Z,4.07
2019-04-29T16:44:59.889Z,4.00
2019-04-29T16:47:31.768Z,4.00
2019-04-29T16:50:04.729Z,4.07
2019-04-29T16:52:36.141Z,4.40
2019-04-29T16:55:07.503Z,4.93
2019-04-29T16:57:38.831Z,4.90
2019-04-29T17:00:14.742Z,5.53
2019-04-29T17:02:45.375Z,6.33
2019-04-29T17:05:16.795Z,8.20
2019-04-29T17:07:48.297Z,6.07
2019-04-29T17:10:44.864Z,6.30
2019-04-29T17:13:23.336Z,5.77
2019-04-29T17:15:52.033Z,4.70
2019-04-29T17:18:22.482Z,5.37
2019-04-29T17:20:53.787Z,5.20
2019-04-29T17:23:25.131Z,5.27
2019-04-29T17:25:56.467Z,5.83
2019-04-29T17:28:37.276Z,5.53
2019-04-29T17:31:26.506Z,5.40
2019-04-29T17:34:01.583Z,6.30
2019-04-29T17:36:33.157Z,6.87
2019-04-29T17:39:04.645Z,11.07
2019-04-29T17:41:36.070Z,9.50
2019-04-29T17:44:35.205Z,6.23
2019-04-29T17:47:24.182Z,6.13
2019-04-29T17:50:12.903Z,6.60
2019-04-29T17:52:44.390Z,6.10
2019-04-29T17:55:38.089Z,7.40
2019-04-29T17:58:10.131Z,7.10
2019-04-29T18:01:06.633Z,7.93
2019-04-29T18:04:02.994Z,7.97
2019-04-29T18:06:48.124Z,9.03
2019-04-29T18:09:32.325Z,7.23
2019-04-29T18:12:10.195Z,8.40
2019-04-29T18:14:42.007Z,7.83
2019-04-29T18:17:24.132Z,8.33
2019-04-29T18:20:00.851Z,8.80
2019-04-29T18:23:02.258Z,8.30
2019-04-29T18:25:41.013Z,9.50
2019-04-29T18:28:12.597Z,8.97
2019-04-29T18:30:45.016Z,10.67
2019-04-29T18:33:19.009Z,10.00
2019-04-29T18:35:49.959Z,11.27
2019-04-29T18:38:21.633Z,8.53
2019-04-29T18:40:53.265Z,9.00
2019-04-29T18:43:26.638Z,9.93
2019-04-29T18:45:59.304Z,9.53
2019-04-29T18:48:30.970Z,9.63
2019-04-29T18:51:02.624Z,9.67
2019-04-29T18:53:35.404Z,10.27
2019-04-29T18:56:07.132Z,9.83
2019-04-29T18:58:42.166Z,10.10
2019-04-29T19:01:11.992Z,10.50
2019-04-29T19:03:59.622Z,11.07
2019-04-29T19:06:31.260Z,11.83
2019-04-29T19:09:02.971Z,12.13
2019-04-29T19:11:35.200Z,12.30
2019-04-29T19:14:06.963Z,11.33
2019-04-29T19:16:39.568Z,10.73
2019-04-29T19:19:11.281Z,12.13
2019-04-29T19:21:42.932Z,12.27
2019-04-29T19:24:16.209Z,11.97
2019-04-29T19:26:47.929Z,12.20
2019-04-29T19:29:19.626Z,12.13
2019-04-29T19:31:51.345Z,11.90
2019-04-29T19:34:23.007Z,12.13
2019-04-29T19:36:59.197Z,11.77
2019-04-29T19:39:27.835Z,12.20
2019-04-29T19:41:59.440Z,13.00
2019-04-29T19:44:33.394Z,12.43
2019-04-29T19:47:04.187Z,12.47
2019-04-29T19:49:36.030Z,12.83
2019-04-29T19:52:08.731Z,12.30
2019-04-29T19:54:40.487Z,12.23
2019-04-29T19:57:11.924Z,12.40
2019-04-29T19:59:50.991Z,12.77
2019-04-29T20:02:17.299Z,13.20
2019-04-29T20:05:01.010Z,13.87
2019-04-29T20:07:40.857Z,13.37
2019-04-29T20:10:09.865Z,13.00
2019-04-29T20:12:41.370Z,10.87
2019-04-29T20:15:16.423Z,9.47
2019-04-29T20:18:19.729Z,9.00
2019-04-29T20:20:52.602Z,8.43
2019-04-29T20:23:26.179Z,11.10
2019-04-29T20:26:12.557Z,9.23
2019-04-29T20:28:30.391Z,9.20
2019-04-29T20:31:15.292Z,10.20
2019-04-29T20:33:35.039Z,11.50
2019-04-29T20:36:06.801Z,10.37
2019-04-29T20:38:39.049Z,11.67
2019-04-29T20:41:13.122Z,11.17
2019-04-29T20:43:45.907Z,11.37
2019-04-29T20:46:17.990Z,11.40
2019-04-29T20:48:54.248Z,12.00
2019-04-29T20:51:23.180Z,13.43
2019-04-29T20:54:01.828Z,13.80
2019-04-29T20:56:35.246Z,13.70
2019-04-29T20:59:11.349Z,13.43
2019-04-29T21:01:43.301Z,13.63
2019-04-29T21:04:29.754Z,14.07
2019-04-29T21:06:59.234Z,12.97
2019-04-29T21:09:22.083Z,13.53
2019-04-29T21:12:15.723Z,13.63
2019-04-29T21:14:51.759Z,13.87
2019-04-29T21:17:31.271Z,14.23
2019-04-29T21:19:56.580Z,15.47
2019-04-29T21:22:27.893Z,14.57
2019-04-29T21:24:59.302Z,15.50
2019-04-29T21:27:30.579Z,14.47
2019-04-29T21:30:01.898Z,16.07
2019-04-29T21:32:35.376Z,15.47
2019-04-29T21:35:17.194Z,15.00
2019-04-29T21:37:58.366Z,16.47
2019-04-29T21:40:35.518Z,15.83
2019-04-29T21:43:13.453Z,14.83
2019-04-29T21:45:44.981Z,15.43
2019-04-29T21:48:16.468Z,16.70
2019-04-29T21:50:47.827Z,16.87
2019-04-29T21:53:19.119Z,15.83
2019-04-29T21:55:50.403Z,18.30
2019-04-29T21:58:21.742Z,16.53
2019-04-29T22:00:55.926Z,16.73
2019-04-29T22:03:28.008Z,17.13
2019-04-29T22:06:00.446Z,19.90
2019-04-29T22:08:31.984Z,18.23
2019-04-29T22:11:05.001Z,16.80
2019-04-29T22:13:38.983Z,16.50
2019-04-29T22:16:11.574Z,17.17
2019-04-29T22:18:44.630Z,16.63
2019-04-29T22:21:21.936Z,17.17
2019-04-29T22:23:51.078Z,16.93
2019-04-29T22:26:23.247Z,17.20
2019-04-29T22:29:01.822Z,17.33
2019-04-29T22:31:34.110Z,19.13
2019-04-29T22:34:01.547Z,18.37
2019-04-29T22:36:32.887Z,18.53
2019-04-29T22:39:06.160Z,17.73
2019-04-29T22:42:02.380Z,19.27
2019-04-29T22:44:35.896Z,19.50
2019-04-29T22:47:07.084Z,18.10
2019-04-29T22:49:38.415Z,18.87
2019-04-29T22:52:09.709Z,20.47
2019-04-29T22:54:41.013Z,19.67
2019-04-29T22:57:12.317Z,19.00
2019-04-29T22:59:44.933Z,18.47
2019-04-29T23:02:20.063Z,20.67
2019-04-29T23:04:53.709Z,21.27
2019-04-29T23:07:23.467Z,19.83
2019-04-29T23:09:55.523Z,20.90
2019-04-29T23:12:27.839Z,23.70
2019-04-29T23:14:59.101Z,21.07
2019-04-29T23:17:30.427Z,21.00
2019-04-29T23:20:09.507Z,20.90
2019-04-29T23:22:52.755Z,21.73
2019-04-29T23:25:35.461Z,22.73
2019-04-29T23:28:06.994Z,22.77
2019-04-29T23:30:38.277Z,23.27
2019-04-29T23:33:09.599Z,23.17
2019-04-29T23:35:41.076Z,23.67
2019-04-29T23:38:12.378Z,26.93
2019-04-29T23:40:43.806Z,23.97
2019-04-29T23:43:15.766Z,23.03
2019-04-29T23:45:47.117Z,25.17
2019-04-29T23:48:19.941Z,27.00
2019-04-29T23:50:54.700Z,26.00
2019-04-29T23:53:25.231Z,25.17
2019-04-29T23:56:00.134Z,26.23
2019-04-29T23:58:46.800Z,25.63
